Time;durP1;ratioP1;P1;durP2;ratioP2;P2;SDS_P1;SDS_P2;PMS_P1;PMS_P2;Temp;Humidity;BMP_temperature;BMP_pressure;BME280_temperature;BME280_humidity;BME280_pressure;Samples;Min_cycle;Max_cycle;Signal;HPM_P1;HPM_P2
2023/10/29 00:01:14;;;;;;;9.20;5.40;;;;;;;;;;5029586;28;20040;-59
2023/10/29 00:03:39;;;;;;;7.40;4.80;;;;;;;;;;5032173;28;20029;-58
2023/10/29 00:06:05;;;;;;;9.73;5.25;;;;;;;;;;5030072;28;20045;-58
2023/10/29 00:08:30;;;;;;;6.70;4.43;;;;;;;;;;5032154;28;20104;-59
2023/10/29 00:10:55;;;;;;;8.13;4.63;;;;;;;;;;5030365;28;20041;-59
2023/10/29 00:13:23;;;;;;;6.32;3.70;;;;;;;;;;5031575;28;20447;-59
2023/10/29 00:15:48;;;;;;;7.32;4.22;;;;;;;;;;5030379;28;20037;-59
2023/10/29 00:18:13;;;;;;;3.78;3.47;;;;;;;;;;5031386;28;20048;-59
2023/10/29 00:20:39;;;;;;;4.23;3.73;;;;;;;;;;5030187;28;20068;-59
2023/10/29 00:23:04;;;;;;;6.22;4.00;;;;;;;;;;5031543;28;20460;-59
2023/10/29 00:25:29;;;;;;;7.20;3.70;;;;;;;;;;5030583;28;20033;-59
2023/10/29 00:27:54;;;;;;;8.35;3.30;;;;;;;;;;5030927;28;20420;-59
2023/10/29 00:30:20;;;;;;;5.40;3.50;;;;;;;;;;5030411;28;20033;-59
2023/10/29 00:32:45;;;;;;;3.33;3.03;;;;;;;;;;5031575;28;20472;-59
2023/10/29 00:35:10;;;;;;;6.43;3.27;;;;;;;;;;5029548;28;20049;-59
2023/10/29 00:37:35;;;;;;;7.43;3.83;;;;;;;;;;5031582;28;20495;-59
2023/10/29 00:40:01;;;;;;;8.37;4.40;;;;;;;;;;5030115;28;20031;-59
2023/10/29 00:42:26;;;;;;;9.68;3.30;;;;;;;;;;5031365;28;20021;-58
2023/10/29 00:44:51;;;;;;;4.65;3.50;;;;;;;;;;5030033;28;20037;-59
2023/10/29 00:47:17;;;;;;;7.57;3.45;;;;;;;;;;5031234;28;20021;-58
2023/10/29 00:49:42;;;;;;;4.05;3.40;;;;;;;;;;5029718;28;20128;-65
2023/10/29 00:52:07;;;;;;;5.03;2.97;;;;;;;;;;5030947;28;20030;-59
2023/10/29 00:54:32;;;;;;;13.43;4.60;;;;;;;;;;5029945;28;20022;-59
2023/10/29 00:56:58;;;;;;;8.88;4.45;;;;;;;;;;5030929;28;20041;-59
2023/10/29 00:59:23;;;;;;;4.05;3.42;;;;;;;;;;5031079;28;20021;-59
2023/10/29 01:01:49;;;;;;;7.15;3.22;;;;;;;;;;5029710;28;20070;-58
2023/10/29 01:04:14;;;;;;;3.25;2.95;;;;;;;;;;5031175;28;20448;-59
2023/10/29 01:06:41;;;;;;;8.50;3.92;;;;;;;;;;5029042;28;20496;-59
2023/10/29 01:09:07;;;;;;;10.77;4.35;;;;;;;;;;5029561;28;20014;-59
2023/10/29 01:11:32;;;;;;;3.03;2.83;;;;;;;;;;5029459;28;20040;-59
2023/10/29 01:13:57;;;;;;;9.82;3.47;;;;;;;;;;5030381;28;20026;-59
2023/10/29 01:16:23;;;;;;;5.53;3.28;;;;;;;;;;5029520;28;20455;-58
2023/10/29 01:18:48;;;;;;;3.27;2.67;;;;;;;;;;5030682;28;20021;-58
2023/10/29 01:21:13;;;;;;;3.10;2.57;;;;;;;;;;5028885;28;21091;-59
2023/10/29 01:23:38;;;;;;;6.43;2.47;;;;;;;;;;5030960;28;20021;-59
2023/10/29 01:26:03;;;;;;;3.08;2.78;;;;;;;;;;5029119;28;20491;-59
2023/10/29 01:28:28;;;;;;;4.95;2.65;;;;;;;;;;5030280;28;20028;-59
2023/10/29 01:30:54;;;;;;;2.47;2.27;;;;;;;;;;5029157;28;20580;-59
2023/10/29 01:33:19;;;;;;;4.27;2.30;;;;;;;;;;5030783;28;20059;-58
2023/10/29 01:35:45;;;;;;;3.33;2.97;;;;;;;;;;5028728;28;20499;-59
2023/10/29 01:38:10;;;;;;;6.93;3.50;;;;;;;;;;5030707;28;20369;-59
2023/10/29 01:40:35;;;;;;;4.57;2.77;;;;;;;;;;5029243;28;21014;-59
2023/10/29 01:43:00;;;;;;;5.07;2.28;;;;;;;;;;5030073;28;20022;-59
2023/10/29 01:45:26;;;;;;;4.17;3.80;;;;;;;;;;5028548;28;20036;-59
2023/10/29 01:47:51;;;;;;;4.15;2.25;;;;;;;;;;5030493;28;20490;-58
2023/10/29 01:50:16;;;;;;;3.20;2.95;;;;;;;;;;5028533;28;20042;-59
2023/10/29 01:52:41;;;;;;;11.60;4.22;;;;;;;;;;5030599;28;20473;-59
2023/10/29 01:55:06;;;;;;;5.07;2.83;;;;;;;;;;5029122;28;20033;-72
2023/10/29 01:57:38;;;;;;;3.97;2.20;;;;;;;;;;5030264;28;20033;-59
2023/10/29 02:00:05;;;;;;;4.00;2.50;;;;;;;;;;5028790;28;20504;-59
2023/10/29 02:02:31;;;;;;;2.87;2.60;;;;;;;;;;5029658;28;20017;-59
2023/10/29 02:04:56;;;;;;;6.70;2.07;;;;;;;;;;5028437;28;20199;-60
2023/10/29 02:07:21;;;;;;;4.60;2.95;;;;;;;;;;5030454;28;21056;-58
2023/10/29 02:09:46;;;;;;;3.53;2.80;;;;;;;;;;5029086;28;20045;-60
2023/10/29 02:12:11;;;;;;;3.73;2.60;;;;;;;;;;5029818;28;20044;-60
2023/10/29 02:14:38;;;;;;;2.78;1.80;;;;;;;;;;5027261;28;20384;-59
2023/10/29 02:17:04;;;;;;;6.18;3.28;;;;;;;;;;5008973;28;20029;-60
2023/10/29 02:19:29;;;;;;;4.67;1.93;;;;;;;;;;5008733;28;20105;-60
2023/10/29 02:21:54;;;;;;;6.63;2.43;;;;;;;;;;5010535;28;20021;-60
2023/10/29 02:24:19;;;;;;;2.75;2.50;;;;;;;;;;5012286;28;20029;-60
2023/10/29 02:26:44;;;;;;;3.30;2.90;;;;;;;;;;5012561;28;20057;-60
2023/10/29 02:29:10;;;;;;;6.75;2.35;;;;;;;;;;5013940;28;20020;-60
2023/10/29 02:31:35;;;;;;;3.17;2.53;;;;;;;;;;5011541;28;20508;-60
2023/10/29 02:34:00;;;;;;;8.57;2.90;;;;;;;;;;5013537;28;20405;-60
2023/10/29 02:36:25;;;;;;;2.13;2.00;;;;;;;;;;5012769;28;20441;-59
2023/10/29 02:38:50;;;;;;;3.17;2.80;;;;;;;;;;5014285;28;20065;-60
2023/10/29 02:41:15;;;;;;;6.07;3.28;;;;;;;;;;5012113;28;20527;-59
2023/10/29 02:43:41;;;;;;;5.47;2.50;;;;;;;;;;5013699;28;20024;-59
2023/10/29 02:46:06;;;;;;;4.85;2.63;;;;;;;;;;5012005;28;20464;-59
2023/10/29 02:48:31;;;;;;;4.90;2.00;;;;;;;;;;5013205;28;20033;-60
2023/10/29 02:50:56;;;;;;;6.27;3.17;;;;;;;;;;5012202;28;20449;-59
2023/10/29 02:53:22;;;;;;;6.53;2.43;;;;;;;;;;5013817;28;20026;-60
2023/10/29 02:55:47;;;;;;;2.50;2.08;;;;;;;;;;5012097;28;20447;-60
2023/10/29 02:58:12;;;;;;;4.65;1.90;;;;;;;;;;5013337;28;20362;-60
2023/10/29 03:00:38;;;;;;;8.20;2.95;;;;;;;;;;5012402;28;20121;-59
2023/10/29 03:03:03;;;;;;;2.50;1.80;;;;;;;;;;5012509;28;20088;-62
2023/10/29 03:05:29;;;;;;;5.18;2.55;;;;;;;;;;5012347;28;20165;-60
2023/10/29 03:07:54;;;;;;;3.77;2.13;;;;;;;;;;5013132;28;20041;-60
2023/10/29 03:10:19;;;;;;;2.87;2.10;;;;;;;;;;5012122;28;20034;-60
2023/10/29 03:12:44;;;;;;;5.95;2.08;;;;;;;;;;5013158;28;20428;-60
2023/10/29 03:15:09;;;;;;;7.27;2.40;;;;;;;;;;5011705;28;20030;-59
2023/10/29 03:17:35;;;;;;;3.13;2.00;;;;;;;;;;5013432;28;20109;-59
2023/10/29 03:20:00;;;;;;;7.97;2.13;;;;;;;;;;5011427;28;20068;-59
2023/10/29 03:22:25;;;;;;;4.80;2.13;;;;;;;;;;5013396;28;20500;-60
2023/10/29 03:24:50;;;;;;;7.43;3.22;;;;;;;;;;5011660;28;20559;-60
2023/10/29 03:27:15;;;;;;;6.13;2.93;;;;;;;;;;5012676;28;20026;-60
2023/10/29 03:29:41;;;;;;;3.72;2.55;;;;;;;;;;5011584;28;20425;-60
2023/10/29 03:32:06;;;;;;;1.70;1.60;;;;;;;;;;5012934;28;20028;-60
2023/10/29 03:34:31;;;;;;;2.93;2.00;;;;;;;;;;5009479;28;20489;-59
2023/10/29 03:36:56;;;;;;;3.63;2.95;;;;;;;;;;5012733;28;20483;-59
2023/10/29 03:39:22;;;;;;;4.95;2.72;;;;;;;;;;5012985;28;20018;-58
2023/10/29 03:41:47;;;;;;;4.40;1.85;;;;;;;;;;5010928;28;20030;-59
2023/10/29 03:44:12;;;;;;;3.10;2.33;;;;;;;;;;5012404;28;20022;-59
2023/10/29 03:46:37;;;;;;;3.92;2.75;;;;;;;;;;5011330;28;20450;-59
2023/10/29 03:49:03;;;;;;;2.50;1.80;;;;;;;;;;5012331;28;20026;-59
2023/10/29 03:51:28;;;;;;;1.70;1.60;;;;;;;;;;5011175;28;20494;-59
2023/10/29 03:53:53;;;;;;;2.33;2.15;;;;;;;;;;5012463;28;20025;-59
2023/10/29 03:56:18;;;;;;;6.93;2.78;;;;;;;;;;5010783;28;20432;-60
2023/10/29 03:58:44;;;;;;;3.17;2.20;;;;;;;;;;5012411;28;20381;-59
2023/10/29 04:01:11;;;;;;;2.37;1.97;;;;;;;;;;5010745;28;20461;-59
2023/10/29 04:03:37;;;;;;;5.93;2.70;;;;;;;;;;5011643;28;20472;-59
2023/10/29 04:06:07;;;;;;;3.37;1.60;;;;;;;;;;5010857;28;20037;-59
2023/10/29 04:08:32;;;;;;;1.88;1.55;;;;;;;;;;5012732;28;20026;-60
2023/10/29 04:10:57;;;;;;;4.15;2.28;;;;;;;;;;5010260;28;20489;-60
2023/10/29 04:13:22;;;;;;;2.87;2.30;;;;;;;;;;5012150;28;20116;-59
2023/10/29 04:15:47;;;;;;;3.73;1.93;;;;;;;;;;5010866;28;20038;-60
2023/10/29 04:18:12;;;;;;;6.77;2.27;;;;;;;;;;5011559;28;20420;-59
2023/10/29 04:20:38;;;;;;;2.40;1.67;;;;;;;;;;5010814;28;20129;-59
2023/10/29 04:23:03;;;;;;;1.83;1.73;;;;;;;;;;5011718;28;20018;-59
2023/10/29 04:25:28;;;;;;;2.80;2.27;;;;;;;;;;5008978;28;20530;-60
2023/10/29 04:27:54;;;;;;;2.23;1.70;;;;;;;;;;5011670;28;20428;-60
2023/10/29 04:30:19;;;;;;;2.22;2.05;;;;;;;;;;5017693;28;20471;-58
2023/10/29 04:32:45;;;;;;;9.80;2.53;;;;;;;;;;5031476;28;20025;-57
2023/10/29 04:35:10;;;;;;;1.67;1.57;;;;;;;;;;5029753;28;20053;-58
2023/10/29 04:37:35;;;;;;;3.72;2.10;;;;;;;;;;5031731;28;20017;-57
2023/10/29 04:40:01;;;;;;;5.60;2.27;;;;;;;;;;5029173;28;20041;-58
2023/10/29 04:42:26;;;;;;;9.73;3.50;;;;;;;;;;5031546;28;20024;-66
2023/10/29 04:44:51;;;;;;;11.43;2.80;;;;;;;;;;5029389;28;20044;-58
2023/10/29 04:47:16;;;;;;;9.93;2.47;;;;;;;;;;5030241;28;20031;-58
2023/10/29 04:49:43;;;;;;;9.80;2.20;;;;;;;;;;5030081;28;20372;-58
2023/10/29 04:52:08;;;;;;;4.30;2.00;;;;;;;;;;5031337;28;20033;-59
2023/10/29 04:54:33;;;;;;;9.20;2.37;;;;;;;;;;5028680;28;20025;-58
2023/10/29 04:56:58;;;;;;;4.23;1.80;;;;;;;;;;5030824;28;20428;-59
2023/10/29 04:59:24;;;;;;;3.80;2.13;;;;;;;;;;5031146;28;20025;-60
2023/10/29 05:01:50;;;;;;;3.22;1.63;;;;;;;;;;5029445;28;20038;-59
2023/10/29 05:04:15;;;;;;;2.60;2.13;;;;;;;;;;5031157;28;20069;-59
2023/10/29 05:06:41;;;;;;;2.75;1.90;;;;;;;;;;5029576;28;20041;-58
2023/10/29 05:09:06;;;;;;;1.90;1.80;;;;;;;;;;5030501;28;20021;-59
2023/10/29 05:11:31;;;;;;;2.13;2.03;;;;;;;;;;5029582;28;20594;-59
2023/10/29 05:13:56;;;;;;;5.22;3.05;;;;;;;;;;5030967;28;20028;-58
2023/10/29 05:16:22;;;;;;;6.47;2.53;;;;;;;;;;5029071;28;20040;-58
2023/10/29 05:18:47;;;;;;;4.78;2.45;;;;;;;;;;5031246;28;20021;-58
2023/10/29 05:21:12;;;;;;;2.80;2.23;;;;;;;;;;5029195;28;20029;-59
2023/10/29 05:23:38;;;;;;;2.15;1.77;;;;;;;;;;5030158;28;20516;-59
2023/10/29 05:26:03;;;;;;;2.40;1.75;;;;;;;;;;5028908;28;20048;-59
2023/10/29 05:28:28;;;;;;;4.67;2.07;;;;;;;;;;5030824;28;20411;-59
2023/10/29 05:30:53;;;;;;;6.43;2.10;;;;;;;;;;5028673;28;20460;-59
2023/10/29 05:33:19;;;;;;;6.18;1.63;;;;;;;;;;5030478;28;20021;-59
2023/10/29 05:35:45;;;;;;;2.53;1.75;;;;;;;;;;5029087;28;20103;-59
2023/10/29 05:38:10;;;;;;;2.17;1.88;;;;;;;;;;5030475;28;20018;-59
2023/10/29 05:40:35;;;;;;;6.20;3.40;;;;;;;;;;5029025;28;20038;-59
2023/10/29 05:43:01;;;;;;;2.90;2.13;;;;;;;;;;5030056;28;20473;-59
2023/10/29 05:45:27;;;;;;;1.90;1.75;;;;;;;;;;5029187;28;20041;-59
2023/10/29 05:47:52;;;;;;;2.75;2.22;;;;;;;;;;5030075;28;20033;-59
2023/10/29 05:50:17;;;;;;;5.07;2.73;;;;;;;;;;5028881;28;20035;-59
2023/10/29 05:52:43;;;;;;;2.10;1.80;;;;;;;;;;5030599;28;20428;-59
2023/10/29 05:55:08;;;;;;;3.22;1.48;;;;;;;;;;5028344;28;20133;-59
2023/10/29 05:57:33;;;;;;;2.90;1.88;;;;;;;;;;5030311;28;20044;-59
2023/10/29 05:59:58;;;;;;;1.83;1.53;;;;;;;;;;5031520;28;20057;-59
2023/10/29 06:02:24;;;;;;;4.43;2.17;;;;;;;;;;5034413;28;20029;-59
2023/10/29 06:04:50;;;;;;;5.10;1.92;;;;;;;;;;5032970;28;20440;-59
2023/10/29 06:07:15;;;;;;;1.55;1.45;;;;;;;;;;5033971;28;20060;-59
2023/10/29 06:09:40;;;;;;;1.95;1.75;;;;;;;;;;5032919;28;20017;-58
2023/10/29 06:12:05;;;;;;;5.97;2.25;;;;;;;;;;5034154;28;20079;-58
2023/10/29 06:14:31;;;;;;;5.85;3.00;;;;;;;;;;5033074;28;20028;-58
2023/10/29 06:16:57;;;;;;;4.20;1.50;;;;;;;;;;5033476;28;20059;-58
2023/10/29 06:19:23;;;;;;;6.35;2.33;;;;;;;;;;5033814;28;20041;-58
2023/10/29 06:21:48;;;;;;;3.20;1.55;;;;;;;;;;5031605;28;20377;-58
2023/10/29 06:24:13;;;;;;;6.05;2.10;;;;;;;;;;5033279;28;20013;-58
2023/10/29 06:26:38;;;;;;;3.58;1.73;;;;;;;;;;5032249;28;20087;-57
2023/10/29 06:29:05;;;;;;;7.03;1.90;;;;;;;;;;5032987;28;20489;-57
2023/10/29 06:31:33;;;;;;;5.88;2.65;;;;;;;;;;5031511;28;20044;-57
2023/10/29 06:33:58;;;;;;;2.72;2.38;;;;;;;;;;5033296;28;20058;-57
2023/10/29 06:36:23;;;;;;;5.78;1.95;;;;;;;;;;5032120;28;20096;-57
2023/10/29 06:38:48;;;;;;;4.47;2.50;;;;;;;;;;5033321;28;20020;-57
2023/10/29 06:41:13;;;;;;;3.25;2.40;;;;;;;;;;5031012;28;20459;-57
2023/10/29 06:43:39;;;;;;;4.67;3.10;;;;;;;;;;5027542;28;20048;-57
2023/10/29 06:46:04;;;;;;;5.20;2.55;;;;;;;;;;5010297;28;20045;-58
2023/10/29 06:48:29;;;;;;;7.70;2.13;;;;;;;;;;5012927;28;20516;-60
2023/10/29 06:50:54;;;;;;;8.68;2.40;;;;;;;;;;5021482;28;20048;-58
2023/10/29 06:53:19;;;;;;;4.77;3.43;;;;;;;;;;5032137;28;20028;-57
2023/10/29 06:55:45;;;;;;;8.23;2.50;;;;;;;;;;5031569;28;20073;-57
2023/10/29 06:58:11;;;;;;;3.37;2.57;;;;;;;;;;5030328;28;20030;-57
2023/10/29 07:00:36;;;;;;;3.78;2.10;;;;;;;;;;5030447;28;20460;-57
2023/10/29 07:03:02;;;;;;;5.13;2.57;;;;;;;;;;5032368;28;20032;-57
2023/10/29 07:05:27;;;;;;;2.65;1.45;;;;;;;;;;5030707;28;20396;-57
2023/10/29 07:07:52;;;;;;;6.33;2.00;;;;;;;;;;5031339;28;20018;-57
2023/10/29 07:10:18;;;;;;;6.97;1.50;;;;;;;;;;5030072;28;20457;-57
2023/10/29 07:12:43;;;;;;;2.50;1.42;;;;;;;;;;5032228;28;20021;-57
2023/10/29 07:15:09;;;;;;;6.90;1.80;;;;;;;;;;5029599;28;20052;-57
2023/10/29 07:17:34;;;;;;;3.03;1.55;;;;;;;;;;5032089;28;20032;-57
2023/10/29 07:20:00;;;;;;;2.90;1.48;;;;;;;;;;5030045;28;20048;-57
2023/10/29 07:22:25;;;;;;;2.47;1.60;;;;;;;;;;5031091;28;20032;-57
2023/10/29 07:24:50;;;;;;;4.80;2.33;;;;;;;;;;5030579;28;20638;-58
2023/10/29 07:27:15;;;;;;;9.15;3.45;;;;;;;;;;5031657;28;20025;-57
2023/10/29 07:29:40;;;;;;;5.20;2.50;;;;;;;;;;5029228;28;20028;-57
2023/10/29 07:32:06;;;;;;;2.77;1.97;;;;;;;;;;5032132;28;20912;-57
2023/10/29 07:34:31;;;;;;;3.08;1.75;;;;;;;;;;5030103;28;20052;-57
2023/10/29 07:36:56;;;;;;;2.50;1.40;;;;;;;;;;5030520;28;20026;-57
2023/10/29 07:39:21;;;;;;;5.30;1.77;;;;;;;;;;5032251;28;20827;-57
2023/10/29 07:41:46;;;;;;;2.73;2.50;;;;;;;;;;5030572;28;20544;-56
2023/10/29 07:44:12;;;;;;;3.80;2.75;;;;;;;;;;5027034;28;20026;-57
2023/10/29 07:46:37;;;;;;;4.78;2.08;;;;;;;;;;5029312;28;20493;-57
2023/10/29 07:49:02;;;;;;;2.30;1.60;;;;;;;;;;5030683;28;20017;-57
2023/10/29 07:51:28;;;;;;;7.80;2.10;;;;;;;;;;5022477;28;20501;-56
2023/10/29 07:53:54;;;;;;;9.50;2.15;;;;;;;;;;5029495;28;20388;-57
2023/10/29 07:56:20;;;;;;;5.03;2.70;;;;;;;;;;5029657;28;20034;-57
2023/10/29 07:58:46;;;;;;;7.22;2.40;;;;;;;;;;5030474;28;20022;-57
2023/10/29 08:01:12;;;;;;;7.72;2.22;;;;;;;;;;5029580;28;20333;-57
2023/10/29 08:03:38;;;;;;;3.65;2.42;;;;;;;;;;5031572;28;20013;-57
2023/10/29 08:06:04;;;;;;;4.70;2.63;;;;;;;;;;5028304;28;20049;-57
2023/10/29 08:08:29;;;;;;;6.40;4.53;;;;;;;;;;5030798;28;20101;-57
2023/10/29 08:10:54;;;;;;;10.97;3.37;;;;;;;;;;5029325;28;20044;-57
2023/10/29 08:13:19;;;;;;;6.45;1.60;;;;;;;;;;5028103;28;20033;-57
2023/10/29 08:15:44;;;;;;;3.37;2.03;;;;;;;;;;5028201;28;20515;-57
2023/10/29 08:18:10;;;;;;;6.80;3.30;;;;;;;;;;5030929;28;20032;-57
2023/10/29 08:20:35;;;;;;;8.93;2.75;;;;;;;;;;5028168;28;20467;-57
2023/10/29 08:23:00;;;;;;;4.80;2.67;;;;;;;;;;5029446;28;20021;-57
2023/10/29 08:25:26;;;;;;;6.33;3.03;;;;;;;;;;5029432;28;20476;-57
2023/10/29 08:27:51;;;;;;;8.82;3.05;;;;;;;;;;5030598;28;20444;-56
2023/10/29 08:30:16;;;;;;;3.77;1.70;;;;;;;;;;5029249;28;20401;-57
2023/10/29 08:32:41;;;;;;;6.07;2.87;;;;;;;;;;5030696;28;20474;-58
2023/10/29 08:35:07;;;;;;;7.72;3.47;;;;;;;;;;5028219;28;20469;-57
2023/10/29 08:37:34;;;;;;;4.55;1.83;;;;;;;;;;5030681;28;20061;-57
2023/10/29 08:39:59;;;;;;;4.60;2.30;;;;;;;;;;5029671;28;20034;-57
2023/10/29 08:42:24;;;;;;;3.87;2.93;;;;;;;;;;5030273;28;20017;-57
2023/10/29 08:44:54;;;;;;;8.03;1.67;;;;;;;;;;5027668;28;20408;-56
2023/10/29 08:47:19;;;;;;;11.63;2.28;;;;;;;;;;5030643;28;20025;-57
2023/10/29 08:49:45;;;;;;;6.47;3.60;;;;;;;;;;5028793;28;20176;-56
2023/10/29 08:52:13;;;;;;;7.35;3.20;;;;;;;;;;5029921;28;20494;-57
2023/10/29 08:54:39;;;;;;;9.02;3.15;;;;;;;;;;5028943;28;20342;-57
2023/10/29 08:57:04;;;;;;;7.95;3.22;;;;;;;;;;5028272;28;20033;-57
2023/10/29 08:59:29;;;;;;;13.52;1.90;;;;;;;;;;5025193;28;20435;-55
2023/10/29 09:01:54;;;;;;;10.60;2.70;;;;;;;;;;5029506;28;19998;-57
2023/10/29 09:04:20;;;;;;;11.35;3.95;;;;;;;;;;5029550;28;20026;-57
2023/10/29 09:06:45;;;;;;;7.28;2.08;;;;;;;;;;5028099;28;20086;-57
2023/10/29 09:09:12;;;;;;;3.80;1.90;;;;;;;;;;5028932;28;20059;-57
2023/10/29 09:11:37;;;;;;;6.03;2.42;;;;;;;;;;5027720;28;20030;-57
2023/10/29 09:14:03;;;;;;;5.72;2.15;;;;;;;;;;5030115;28;20507;-57
2023/10/29 09:16:28;;;;;;;10.20;3.92;;;;;;;;;;5029028;28;20036;-57
2023/10/29 09:18:53;;;;;;;4.40;2.15;;;;;;;;;;5029068;28;20018;-57
2023/10/29 09:21:19;;;;;;;4.88;2.15;;;;;;;;;;5027930;28;20480;-57
2023/10/29 09:23:44;;;;;;;10.00;2.90;;;;;;;;;;5030390;28;20013;-57
2023/10/29 09:26:09;;;;;;;7.93;2.38;;;;;;;;;;5028055;28;20574;-57
2023/10/29 09:28:34;;;;;;;5.78;2.15;;;;;;;;;;5029849;28;20021;-57
2023/10/29 09:30:59;;;;;;;10.47;2.77;;;;;;;;;;5028005;28;20116;-57
2023/10/29 09:33:25;;;;;;;6.22;2.30;;;;;;;;;;5029536;28;20155;-56
2023/10/29 09:35:50;;;;;;;7.97;2.47;;;;;;;;;;5027568;28;20050;-57
2023/10/29 09:38:16;;;;;;;4.88;2.05;;;;;;;;;;5029744;28;20419;-58
2023/10/29 09:40:41;;;;;;;3.70;1.38;;;;;;;;;;5028806;28;20044;-57
2023/10/29 09:43:09;;;;;;;10.02;3.13;;;;;;;;;;5027777;28;20021;-57
2023/10/29 09:45:38;;;;;;;7.22;2.10;;;;;;;;;;5025583;28;20482;-57
2023/10/29 09:48:04;;;;;;;10.32;2.72;;;;;;;;;;5028720;28;20021;-57
2023/10/29 09:50:30;;;;;;;11.30;2.83;;;;;;;;;;5026431;28;20095;-58
2023/10/29 09:52:57;;;;;;;4.97;1.80;;;;;;;;;;5028641;28;20496;-57
2023/10/29 09:55:23;;;;;;;12.48;3.80;;;;;;;;;;5027445;28;20017;-57
2023/10/29 09:57:48;;;;;;;4.57;2.00;;;;;;;;;;5028686;28;20021;-57
2023/10/29 10:00:17;;;;;;;5.15;2.50;;;;;;;;;;5029803;28;20018;-57
2023/10/29 10:02:49;;;;;;;14.32;4.78;;;;;;;;;;5028527;28;20381;-57
2023/10/29 10:05:16;;;;;;;7.80;2.88;;;;;;;;;;5027505;28;20068;-54
2023/10/29 10:07:41;;;;;;;5.82;2.63;;;;;;;;;;5029894;28;20020;-57
2023/10/29 10:10:06;;;;;;;3.83;2.20;;;;;;;;;;5029866;28;20059;-57
2023/10/29 10:12:31;;;;;;;9.23;3.15;;;;;;;;;;5026841;28;20456;-57
2023/10/29 10:15:06;;;;;;;3.10;2.28;;;;;;;;;;5029735;28;20026;-57
2023/10/29 10:17:31;;;;;;;11.77;3.63;;;;;;;;;;5028235;28;20041;-57
2023/10/29 10:20:11;;;;;;;13.93;3.92;;;;;;;;;;5028048;28;20060;-57
2023/10/29 10:22:36;;;;;;;6.13;3.40;;;;;;;;;;5028565;28;20040;-61
2023/10/29 10:25:01;;;;;;;14.50;2.70;;;;;;;;;;5029176;28;20528;-57
2023/10/29 10:27:27;;;;;;;8.85;3.05;;;;;;;;;;5026819;28;20033;-57
2023/10/29 10:29:52;;;;;;;4.93;2.00;;;;;;;;;;5029702;28;20017;-57
2023/10/29 10:32:22;;;;;;;7.13;2.03;;;;;;;;;;5028348;28;20034;-57
2023/10/29 10:34:50;;;;;;;4.75;2.13;;;;;;;;;;5027871;28;20555;-57
2023/10/29 10:37:16;;;;;;;5.13;1.90;;;;;;;;;;5028097;28;20044;-62
2023/10/29 10:39:41;;;;;;;8.90;2.75;;;;;;;;;;5028898;28;20560;-57
2023/10/29 10:42:07;;;;;;;11.52;4.10;;;;;;;;;;5010837;28;20161;-57
2023/10/29 10:44:35;;;;;;;7.47;2.87;;;;;;;;;;5009752;28;20403;-57
2023/10/29 10:47:02;;;;;;;5.93;1.85;;;;;;;;;;5010193;28;20042;-57
2023/10/29 10:49:32;;;;;;;12.60;3.22;;;;;;;;;;5011550;28;20034;-57
2023/10/29 10:51:58;;;;;;;4.22;1.95;;;;;;;;;;5025696;28;20025;-57
2023/10/29 10:54:24;;;;;;;8.45;2.17;;;;;;;;;;5033084;28;20025;-57
2023/10/29 10:56:50;;;;;;;7.88;1.92;;;;;;;;;;5030249;28;20044;-57
2023/10/29 10:59:15;;;;;;;6.68;2.15;;;;;;;;;;5032654;28;20116;-62
2023/10/29 11:01:41;;;;;;;4.57;2.53;;;;;;;;;;5030654;28;20084;-58
2023/10/29 11:04:08;;;;;;;5.57;2.05;;;;;;;;;;5029726;28;20025;-57
2023/10/29 11:06:34;;;;;;;8.70;3.35;;;;;;;;;;5028705;28;20092;-57
2023/10/29 11:08:59;;;;;;;12.50;2.85;;;;;;;;;;5029341;28;20026;-57
2023/10/29 11:11:35;;;;;;;6.72;1.77;;;;;;;;;;5029656;28;20048;-57
2023/10/29 11:14:08;;;;;;;6.93;2.25;;;;;;;;;;5031294;28;20029;-57
2023/10/29 11:16:33;;;;;;;5.78;2.38;;;;;;;;;;5031298;28;20061;-57
2023/10/29 11:18:58;;;;;;;6.10;1.97;;;;;;;;;;5030383;28;20497;-57
2023/10/29 11:21:33;;;;;;;5.80;2.13;;;;;;;;;;5030165;28;20038;-57
2023/10/29 11:24:17;;;;;;;8.57;2.20;;;;;;;;;;5031348;28;20032;-57
2023/10/29 11:26:43;;;;;;;7.00;2.17;;;;;;;;;;5030800;28;20562;-57
2023/10/29 11:29:08;;;;;;;5.22;2.05;;;;;;;;;;5031661;28;20025;-57
2023/10/29 11:31:33;;;;;;;4.73;2.00;;;;;;;;;;5030905;28;20080;-57
2023/10/29 11:33:58;;;;;;;10.27;4.07;;;;;;;;;;5031850;28;20452;-57
2023/10/29 11:36:35;;;;;;;4.97;3.00;;;;;;;;;;5030951;28;20626;-57
2023/10/29 11:39:23;;;;;;;17.27;3.88;;;;;;;;;;5031587;28;20027;-57
2023/10/29 11:41:48;;;;;;;16.23;3.30;;;;;;;;;;5006139;28;20053;-57
2023/10/29 11:44:29;;;;;;;5.28;2.10;;;;;;;;;;5012130;28;20568;-57
2023/10/29 11:46:54;;;;;;;4.85;3.35;;;;;;;;;;5010913;28;20181;-57
2023/10/29 11:49:19;;;;;;;4.07;2.80;;;;;;;;;;5011391;28;20097;-57
2023/10/29 11:51:51;;;;;;;9.30;2.93;;;;;;;;;;5029088;28;20045;-57
2023/10/29 11:54:16;;;;;;;5.47;2.38;;;;;;;;;;5031668;28;20014;-57
2023/10/29 11:56:42;;;;;;;15.55;3.70;;;;;;;;;;5030258;28;20049;-58
2023/10/29 11:59:08;;;;;;;8.50;2.90;;;;;;;;;;5035703;28;20009;-57
2023/10/29 12:01:33;;;;;;;6.35;2.65;;;;;;;;;;5050483;28;20496;-57
2023/10/29 12:03:58;;;;;;;8.38;3.17;;;;;;;;;;5051466;28;20047;-57
2023/10/29 12:06:36;;;;;;;6.47;2.93;;;;;;;;;;5044182;28;20106;-57
2023/10/29 12:09:02;;;;;;;9.05;3.47;;;;;;;;;;5031536;28;20018;-57
2023/10/29 12:11:27;;;;;;;6.85;1.90;;;;;;;;;;5029874;28;20044;-57
2023/10/29 12:13:52;;;;;;;6.53;2.23;;;;;;;;;;5031269;28;20100;-57
2023/10/29 12:16:20;;;;;;;8.13;3.03;;;;;;;;;;5030226;28;20061;-57
2023/10/29 12:18:48;;;;;;;7.90;2.60;;;;;;;;;;5031032;28;20022;-57
2023/10/29 12:21:13;;;;;;;;;;;;;;;;;;5029984;28;20040;-57
2023/10/29 12:23:39;;;;;;;10.00;4.18;;;;;;;;;;5031445;28;19905;-57
2023/10/29 12:26:04;;;;;;;12.48;4.30;;;;;;;;;;5030160;28;20075;-57
2023/10/29 12:28:36;;;;;;;3.65;1.88;;;;;;;;;;5032341;28;20064;-57
2023/10/29 12:31:03;;;;;;;4.95;2.88;;;;;;;;;;5029575;28;20496;-57
2023/10/29 12:33:31;;;;;;;10.27;3.35;;;;;;;;;;5031192;28;20048;-57
2023/10/29 12:35:59;;;;;;;8.73;3.08;;;;;;;;;;5029622;28;20037;-67
2023/10/29 12:38:25;;;;;;;6.77;2.20;;;;;;;;;;5031349;28;20030;-57
2023/10/29 12:41:04;;;;;;;8.40;1.85;;;;;;;;;;5029344;28;20049;-57
2023/10/29 12:43:35;;;;;;;8.93;2.85;;;;;;;;;;5031038;28;20053;-57
2023/10/29 12:46:00;;;;;;;5.55;2.83;;;;;;;;;;5029303;28;20053;-57
2023/10/29 12:48:26;;;;;;;11.90;2.90;;;;;;;;;;5030622;28;20725;-57
2023/10/29 12:50:51;;;;;;;5.80;1.53;;;;;;;;;;5029555;28;20498;-57
2023/10/29 12:53:20;;;;;;;9.55;2.90;;;;;;;;;;5031163;28;20036;-57
2023/10/29 12:55:46;;;;;;;11.15;4.88;;;;;;;;;;5029130;28;20485;-57
2023/10/29 12:58:11;;;;;;;5.88;2.85;;;;;;;;;;5030851;28;20093;-57
2023/10/29 13:00:37;;;;;;;7.47;3.50;;;;;;;;;;5029512;28;20068;-57
2023/10/29 13:03:03;;;;;;;7.10;2.35;;;;;;;;;;5030512;28;20428;-56
2023/10/29 13:05:29;;;;;;;2.58;1.50;;;;;;;;;;5029044;28;20648;-56
2023/10/29 13:07:54;;;;;;;4.77;2.17;;;;;;;;;;5029430;28;20108;-61
2023/10/29 13:10:21;;;;;;;6.47;1.70;;;;;;;;;;5029091;28;20044;-57
2023/10/29 13:12:46;;;;;;;5.07;1.88;;;;;;;;;;5029527;28;20020;-57
2023/10/29 13:15:12;;;;;;;7.82;2.72;;;;;;;;;;5028931;28;20338;-63
2023/10/29 13:17:38;;;;;;;4.30;1.80;;;;;;;;;;5029827;28;20072;-57
2023/10/29 13:20:05;;;;;;;7.85;2.83;;;;;;;;;;5028210;28;20033;-57
2023/10/29 13:22:31;;;;;;;3.45;2.13;;;;;;;;;;5030436;28;20056;-56
2023/10/29 13:24:58;;;;;;;12.43;3.80;;;;;;;;;;5027912;28;20076;-56
2023/10/29 13:27:23;;;;;;;3.95;1.63;;;;;;;;;;5030156;28;21010;-57
2023/10/29 13:29:49;;;;;;;3.83;2.43;;;;;;;;;;5028548;28;20017;-57
2023/10/29 13:32:15;;;;;;;3.72;1.85;;;;;;;;;;5029484;28;20035;-57
2023/10/29 13:34:41;;;;;;;4.25;1.85;;;;;;;;;;5028427;28;20515;-57
2023/10/29 13:37:06;;;;;;;4.53;2.53;;;;;;;;;;5029848;28;20087;-57
2023/10/29 13:39:31;;;;;;;6.88;1.70;;;;;;;;;;5028577;28;20361;-52
2023/10/29 13:41:56;;;;;;;7.23;2.47;;;;;;;;;;5030083;28;20025;-56
2023/10/29 13:44:23;;;;;;;7.13;2.70;;;;;;;;;;5030077;28;20114;-57
2023/10/29 13:46:48;;;;;;;4.95;2.42;;;;;;;;;;5028290;28;20100;-58
2023/10/29 13:49:13;;;;;;;6.53;1.90;;;;;;;;;;5029378;28;20496;-58
2023/10/29 13:51:39;;;;;;;8.60;2.40;;;;;;;;;;5028012;28;20464;-58
2023/10/29 13:54:04;;;;;;;3.83;2.03;;;;;;;;;;5029388;28;20533;-58
2023/10/29 13:56:29;;;;;;;3.80;2.85;;;;;;;;;;5028060;28;20151;-58
2023/10/29 13:58:55;;;;;;;5.53;2.43;;;;;;;;;;5029280;28;20033;-58
2023/10/29 14:01:21;;;;;;;6.18;2.00;;;;;;;;;;5028620;28;20545;-58
2023/10/29 14:03:47;;;;;;;3.47;3.03;;;;;;;;;;5029970;28;20029;-58
2023/10/29 14:06:12;;;;;;;2.35;2.15;;;;;;;;;;5028340;28;20056;-58
2023/10/29 14:08:38;;;;;;;3.88;2.03;;;;;;;;;;5029900;28;20033;-58
2023/10/29 14:11:03;;;;;;;4.25;2.25;;;;;;;;;;5027953;28;20079;-58
2023/10/29 14:13:28;;;;;;;3.58;1.85;;;;;;;;;;5030014;28;20068;-58
2023/10/29 14:15:57;;;;;;;9.65;1.80;;;;;;;;;;5027722;28;20430;-58
2023/10/29 14:18:22;;;;;;;2.92;2.22;;;;;;;;;;5029588;28;20023;-58
2023/10/29 14:20:48;;;;;;;1.60;1.50;;;;;;;;;;5031104;28;20120;-58
2023/10/29 14:23:13;;;;;;;3.90;1.73;;;;;;;;;;5033758;28;20449;-58
2023/10/29 14:25:38;;;;;;;2.40;1.80;;;;;;;;;;5031685;28;20524;-57
2023/10/29 14:28:04;;;;;;;3.90;1.90;;;;;;;;;;5033117;28;20455;-58
2023/10/29 14:30:30;;;;;;;5.28;2.00;;;;;;;;;;5032318;28;20029;-58
2023/10/29 14:32:55;;;;;;;2.45;1.67;;;;;;;;;;5032387;28;20083;-58
2023/10/29 14:35:20;;;;;;;5.82;1.75;;;;;;;;;;5025536;28;20057;-58